createdAt,value
2023-04-19T00:02:04.962Z,99.87
2023-04-19T00:04:34.099Z,100.00
2023-04-19T00:07:04.306Z,99.95
2023-04-19T00:09:32.764Z,99.92
2023-04-19T00:12:03.271Z,100.00
2023-04-19T00:14:32.172Z,100.00
2023-04-19T00:17:01.002Z,100.00
2023-04-19T00:19:29.766Z,100.00
2023-04-19T00:21:58.193Z,100.00
2023-04-19T00:24:26.710Z,100.00
2023-04-19T00:26:55.501Z,100.00
2023-04-19T00:29:25.754Z,100.00
2023-04-19T00:31:54.249Z,100.00
2023-04-19T00:34:23.094Z,100.00
2023-04-19T00:36:51.516Z,100.00
2023-04-19T00:39:20.150Z,100.00
2023-04-19T00:41:48.553Z,100.00
2023-04-19T00:44:17.553Z,100.00
2023-04-19T00:46:47.888Z,100.00
2023-04-19T00:49:19.109Z,100.00
2023-04-19T00:51:48.967Z,100.00
2023-04-19T00:54:18.210Z,100.00
2023-04-19T00:56:48.011Z,100.00
2023-04-19T00:59:20.127Z,100.00
2023-04-19T01:01:50.157Z,100.00
2023-04-19T01:04:20.149Z,100.00
2023-04-19T01:06:49.128Z,100.00
2023-04-19T01:09:18.676Z,100.00
2023-04-19T01:11:47.418Z,100.00
2023-04-19T01:14:16.923Z,100.00
2023-04-19T01:16:50.813Z,100.00
2023-04-19T01:19:19.226Z,100.00
2023-04-19T01:21:47.754Z,100.00
2023-04-19T01:24:17.751Z,100.00
2023-04-19T01:26:46.855Z,100.00
2023-04-19T01:29:15.900Z,100.00
2023-04-19T01:31:51.468Z,100.00
2023-04-19T01:34:20.114Z,100.00
2023-04-19T01:36:48.978Z,100.00
2023-04-19T01:39:18.993Z,100.00
2023-04-19T01:41:47.565Z,100.00
2023-04-19T01:44:16.554Z,100.00
2023-04-19T01:46:46.257Z,100.00
2023-04-19T01:49:15.187Z,100.00
2023-04-19T01:51:44.412Z,100.00
2023-04-19T01:54:12.970Z,100.00
2023-04-19T01:56:43.041Z,100.00
2023-04-19T01:59:11.810Z,100.00
2023-04-19T02:01:40.975Z,100.00
2023-04-19T02:04:09.662Z,100.00
2023-04-19T02:06:38.241Z,100.00
2023-04-19T02:09:06.851Z,100.00
2023-04-19T02:11:35.314Z,100.00
2023-04-19T02:14:06.001Z,100.00
2023-04-19T02:16:36.085Z,100.00
2023-04-19T02:19:05.565Z,100.00
2023-04-19T02:21:34.955Z,100.00
2023-04-19T02:24:03.406Z,100.00
2023-04-19T02:26:33.023Z,100.00
2023-04-19T02:29:01.684Z,100.00
2023-04-19T02:31:31.395Z,100.00
2023-04-19T02:33:59.871Z,100.00
2023-04-19T02:36:28.583Z,100.00
2023-04-19T02:38:59.440Z,100.00
2023-04-19T02:41:28.289Z,100.00
2023-04-19T02:43:56.790Z,100.00
2023-04-19T02:46:25.385Z,100.00
2023-04-19T02:48:55.238Z,100.00
2023-04-19T02:51:24.384Z,100.00
2023-04-19T02:53:52.860Z,100.00
2023-04-19T02:56:21.883Z,100.00
2023-04-19T02:58:50.889Z,100.00
2023-04-19T03:01:19.448Z,100.00
2023-04-19T03:03:48.288Z,100.00
2023-04-19T03:06:18.439Z,100.00
2023-04-19T03:08:47.162Z,100.00
2023-04-19T03:11:19.455Z,100.00
2023-04-19T03:13:48.984Z,100.00
2023-04-19T03:16:17.696Z,100.00
2023-04-19T03:18:48.017Z,100.00
2023-04-19T03:21:21.523Z,100.00
2023-04-19T03:23:55.508Z,100.00
2023-04-19T03:26:25.727Z,100.00
2023-04-19T03:28:56.182Z,100.00
2023-04-19T03:31:41.159Z,100.00
2023-04-19T03:34:13.429Z,100.00
2023-04-19T03:36:47.822Z,100.00
2023-04-19T03:39:16.378Z,100.00
2023-04-19T03:41:48.385Z,100.00
2023-04-19T03:44:43.106Z,100.00
2023-04-19T03:47:12.912Z,100.00
2023-04-19T03:49:46.027Z,100.00
2023-04-19T03:52:16.233Z,100.00
2023-04-19T03:54:45.310Z,100.00
2023-04-19T03:57:27.025Z,100.00
2023-04-19T03:59:56.757Z,100.00
2023-04-19T04:02:25.499Z,100.00
2023-04-19T04:04:55.987Z,100.00
2023-04-19T04:07:27.575Z,100.00
2023-04-19T04:09:56.745Z,100.00
2023-04-19T04:12:25.534Z,100.00
2023-04-19T04:14:56.962Z,100.00
2023-04-19T04:17:26.329Z,100.00
2023-04-19T04:19:56.804Z,100.00
2023-04-19T04:22:29.990Z,100.00
2023-04-19T04:24:59.439Z,100.00
2023-04-19T04:27:33.528Z,100.00
2023-04-19T04:30:03.250Z,100.00
2023-04-19T04:32:36.054Z,100.00
2023-04-19T04:35:08.225Z,100.00
2023-04-19T04:37:55.262Z,100.00
2023-04-19T04:40:24.187Z,100.00
2023-04-19T04:42:54.304Z,100.00
2023-04-19T04:45:24.866Z,100.00
2023-04-19T04:47:53.675Z,100.00
2023-04-19T04:50:23.998Z,100.00
2023-04-19T04:52:54.817Z,100.00
2023-04-19T04:55:28.334Z,100.00
2023-04-19T04:57:56.949Z,100.00
2023-04-19T05:00:45.523Z,100.00
2023-04-19T05:03:15.252Z,100.00
2023-04-19T05:05:49.862Z,100.00
2023-04-19T05:08:20.595Z,100.00
2023-04-19T05:10:50.055Z,100.00
2023-04-19T05:13:19.973Z,100.00
2023-04-19T05:15:48.924Z,100.00
2023-04-19T05:18:17.365Z,100.00
2023-04-19T05:20:47.000Z,100.00
2023-04-19T05:23:22.992Z,100.00
2023-04-19T05:25:52.895Z,100.00
2023-04-19T05:28:23.927Z,100.00
2023-04-19T05:31:04.065Z,100.00
2023-04-19T05:33:37.098Z,100.00
2023-04-19T05:36:06.858Z,100.00
2023-04-19T05:38:37.548Z,100.00
2023-04-19T05:41:09.290Z,100.00
2023-04-19T05:43:39.456Z,100.00
2023-04-19T05:46:10.501Z,100.00
2023-04-19T05:48:39.654Z,100.00
2023-04-19T05:51:31.995Z,100.00
2023-04-19T05:54:22.921Z,100.00
2023-04-19T05:56:52.634Z,100.00
2023-04-19T05:59:21.231Z,100.00
2023-04-19T06:01:50.101Z,100.00
2023-04-19T06:04:19.258Z,100.00
2023-04-19T06:06:48.621Z,100.00
2023-04-19T06:09:18.392Z,100.00
2023-04-19T06:11:51.544Z,100.00
2023-04-19T06:14:20.892Z,100.00
2023-04-19T06:16:49.509Z,100.00
2023-04-19T06:19:18.180Z,100.00
2023-04-19T06:21:47.866Z,100.00
2023-04-19T06:24:17.102Z,100.00
2023-04-19T06:26:45.559Z,100.00
2023-04-19T06:29:16.699Z,100.00
2023-04-19T06:31:46.580Z,100.00
2023-04-19T06:34:16.190Z,100.00
2023-04-19T06:36:45.862Z,100.00
2023-04-19T06:39:15.759Z,100.00
2023-04-19T06:41:45.373Z,100.00
2023-04-19T06:44:19.897Z,100.00
2023-04-19T06:46:49.224Z,100.00
2023-04-19T06:49:17.742Z,100.00
2023-04-19T06:51:47.095Z,100.00
2023-04-19T06:54:16.170Z,100.00
2023-04-19T06:56:47.020Z,100.00
2023-04-19T06:59:17.368Z,100.00
2023-04-19T07:01:49.158Z,100.00
2023-04-19T07:04:21.224Z,100.00
2023-04-19T07:06:50.938Z,100.00
2023-04-19T07:09:19.439Z,100.00
2023-04-19T07:11:48.721Z,100.00
2023-04-19T07:14:17.377Z,100.00
2023-04-19T07:16:47.043Z,100.00
2023-04-19T07:19:19.353Z,100.00
2023-04-19T07:21:48.060Z,100.00
2023-04-19T07:24:17.515Z,100.00
2023-04-19T07:26:46.392Z,100.00
2023-04-19T07:29:16.378Z,100.00
2023-04-19T07:31:47.597Z,100.00
2023-04-19T07:34:18.175Z,100.00
2023-04-19T07:36:47.205Z,100.00
2023-04-19T07:39:16.030Z,100.00
2023-04-19T07:41:44.622Z,100.00
2023-04-19T07:44:14.439Z,100.00
2023-04-19T07:46:44.513Z,100.00
2023-04-19T07:49:13.321Z,100.00
2023-04-19T07:51:43.699Z,100.00
2023-04-19T07:54:13.011Z,100.00
2023-04-19T07:56:41.905Z,100.00
2023-04-19T07:59:10.811Z,100.00
2023-04-19T08:01:39.545Z,100.00
2023-04-19T08:04:09.089Z,100.00
2023-04-19T08:06:40.018Z,100.00
2023-04-19T08:09:11.797Z,100.00
2023-04-19T08:11:40.292Z,100.00
2023-04-19T08:14:28.337Z,100.00
2023-04-19T08:17:22.219Z,100.00
2023-04-19T08:19:46.551Z,100.00
2023-04-19T08:22:15.256Z,100.00
2023-04-19T08:24:45.695Z,100.00
2023-04-19T08:27:14.427Z,100.00
2023-04-19T08:29:44.316Z,100.00
2023-04-19T08:32:14.069Z,100.00
2023-04-19T08:34:42.876Z,100.00
2023-04-19T08:37:11.552Z,100.00
2023-04-19T08:39:40.973Z,100.00
2023-04-19T08:42:24.777Z,100.00
2023-04-19T08:47:51.802Z,100.00
2023-04-19T08:50:33.456Z,100.00
2023-04-19T08:53:23.090Z,100.00
2023-04-19T08:56:12.662Z,100.00
2023-04-19T09:01:33.932Z,100.00
2023-04-19T09:04:26.408Z,100.00
2023-04-19T09:06:55.128Z,100.00
2023-04-19T09:12:00.467Z,100.00
2023-04-19T09:14:30.923Z,100.00
2023-04-19T09:17:15.866Z,100.00
2023-04-19T09:19:48.924Z,100.00
2023-04-19T09:22:18.183Z,100.00
2023-04-19T09:25:22.713Z,100.00
2023-04-19T09:27:38.354Z,100.00
2023-04-19T09:30:17.651Z,100.00
2023-04-19T09:32:50.508Z,100.00
2023-04-19T09:35:19.964Z,100.00
2023-04-19T09:40:32.107Z,100.00
2023-04-19T09:43:12.922Z,100.00
2023-04-19T09:45:48.342Z,100.00
2023-04-19T09:48:17.172Z,100.00
2023-04-19T09:51:00.696Z,100.00
2023-04-19T09:53:34.756Z,100.00
2023-04-19T09:56:06.387Z,100.00
2023-04-19T09:58:47.011Z,100.00
2023-04-19T10:01:22.346Z,100.00
2023-04-19T10:03:52.752Z,100.00
2023-04-19T10:08:56.479Z,100.00
2023-04-19T10:11:30.628Z,100.00
2023-04-19T10:14:02.690Z,100.00
2023-04-19T10:16:34.174Z,100.00
2023-04-19T10:19:06.413Z,100.00
2023-04-19T10:21:37.165Z,100.00
2023-04-19T10:24:07.378Z,100.00
2023-04-19T10:27:08.498Z,100.00
2023-04-19T10:29:56.042Z,100.00
2023-04-19T10:32:29.121Z,100.00
2023-04-19T10:35:03.970Z,100.00
2023-04-19T10:37:33.945Z,100.00
2023-04-19T10:40:02.768Z,100.00
2023-04-19T10:43:04.952Z,100.00
2023-04-19T10:45:34.029Z,100.00
2023-04-19T10:48:05.219Z,100.00
2023-04-19T10:51:02.671Z,100.00
2023-04-19T10:53:48.264Z,100.00
2023-04-19T10:56:18.752Z,100.00
2023-04-19T10:59:24.380Z,100.00
2023-04-19T11:01:55.783Z,100.00
2023-04-19T11:05:02.450Z,100.00
2023-04-19T11:07:39.251Z,100.00
2023-04-19T11:10:09.652Z,100.00
2023-04-19T11:12:38.762Z,100.00
2023-04-19T11:15:10.795Z,100.00
2023-04-19T11:17:39.789Z,100.00
2023-04-19T11:20:12.221Z,100.00
2023-04-19T11:22:42.706Z,100.00
2023-04-19T11:25:13.992Z,100.00
2023-04-19T11:27:44.237Z,100.00
2023-04-19T11:30:15.158Z,100.00
2023-04-19T11:32:48.471Z,100.00
2023-04-19T11:35:23.380Z,100.00
2023-04-19T11:37:53.202Z,100.00
2023-04-19T11:40:23.717Z,100.00
2023-04-19T11:42:56.412Z,100.00
2023-04-19T11:45:32.204Z,100.00
2023-04-19T11:48:04.396Z,100.00
2023-04-19T11:50:36.997Z,100.00
2023-04-19T11:53:13.939Z,100.00
2023-04-19T11:55:47.353Z,100.00
2023-04-19T11:58:28.775Z,100.00
2023-04-19T12:00:58.529Z,100.00
2023-04-19T12:03:27.717Z,100.00
2023-04-19T12:05:59.833Z,100.00
2023-04-19T12:08:33.190Z,100.00
2023-04-19T12:11:03.658Z,100.00
2023-04-19T12:13:33.700Z,100.00
2023-04-19T12:16:03.507Z,100.00
2023-04-19T12:18:45.417Z,100.00
2023-04-19T12:21:27.340Z,100.00
2023-04-19T12:23:58.039Z,100.00
2023-04-19T12:26:28.418Z,100.00
2023-04-19T12:28:57.444Z,100.00
2023-04-19T12:31:27.258Z,100.00
2023-04-19T12:33:56.265Z,100.00
2023-04-19T12:36:26.865Z,100.00
2023-04-19T12:38:55.963Z,100.00
2023-04-19T12:41:24.821Z,100.00
2023-04-19T12:43:53.588Z,100.00
2023-04-19T12:46:23.048Z,100.00
2023-04-19T12:48:52.204Z,100.00
2023-04-19T12:51:22.118Z,100.00
2023-04-19T12:53:53.847Z,100.00
2023-04-19T12:56:22.602Z,100.00
2023-04-19T12:58:51.341Z,100.00
2023-04-19T13:01:20.356Z,100.00
2023-04-19T13:03:49.399Z,100.00
2023-04-19T13:06:18.864Z,100.00
2023-04-19T13:08:49.702Z,100.00
2023-04-19T13:11:23.599Z,100.00
2023-04-19T13:13:54.255Z,100.00
2023-04-19T13:16:23.530Z,100.00
2023-04-19T13:18:54.863Z,100.00
2023-04-19T13:21:24.342Z,100.00
2023-04-19T13:23:53.387Z,100.00
2023-04-19T13:26:24.092Z,100.00
2023-04-19T13:28:52.916Z,100.00
2023-04-19T13:31:22.489Z,100.00
2023-04-19T13:33:51.764Z,100.00
2023-04-19T13:36:20.704Z,100.00
2023-04-19T13:38:50.074Z,100.00
2023-04-19T13:41:19.703Z,100.00
2023-04-19T13:43:50.235Z,100.00
2023-04-19T13:46:19.075Z,100.00
2023-04-19T13:48:48.117Z,100.00
2023-04-19T13:51:17.015Z,100.00
2023-04-19T13:53:45.962Z,98.39
2023-04-19T13:56:15.358Z,96.22
2023-04-19T13:58:44.297Z,96.09
2023-04-19T14:01:14.856Z,96.24
2023-04-19T14:03:47.404Z,95.10
2023-04-19T14:06:17.480Z,95.31
2023-04-19T14:08:47.278Z,94.92
2023-04-19T14:11:18.091Z,93.29
2023-04-19T14:13:48.546Z,93.22
2023-04-19T14:16:18.937Z,94.21
2023-04-19T14:18:48.145Z,95.14
2023-04-19T14:21:16.871Z,95.61
2023-04-19T14:23:46.104Z,94.60
2023-04-19T14:26:16.291Z,93.88
2023-04-19T14:28:45.010Z,93.67
2023-04-19T14:31:14.179Z,94.42
2023-04-19T14:33:44.344Z,93.99
2023-04-19T14:36:13.606Z,93.62
2023-04-19T14:38:42.787Z,94.69
2023-04-19T14:41:12.260Z,95.10
2023-04-19T14:43:41.837Z,96.10
2023-04-19T14:46:11.712Z,95.62
2023-04-19T14:48:41.069Z,96.12
2023-04-19T14:51:11.295Z,96.63
2023-04-19T14:53:40.313Z,96.71
2023-04-19T14:56:10.129Z,96.93
2023-04-19T14:58:39.116Z,97.20
2023-04-19T15:01:15.011Z,97.14
2023-04-19T15:03:44.545Z,98.16
2023-04-19T15:06:16.384Z,98.69
2023-04-19T15:08:45.640Z,99.13
2023-04-19T15:11:16.600Z,100.00
2023-04-19T15:13:47.398Z,100.00
2023-04-19T15:16:17.385Z,100.00
2023-04-19T15:18:46.202Z,100.00
2023-04-19T15:21:21.242Z,100.00
2023-04-19T15:23:51.744Z,100.00
2023-04-19T15:26:21.686Z,100.00
2023-04-19T15:28:50.410Z,100.00
2023-04-19T15:31:20.015Z,100.00
2023-04-19T15:33:48.996Z,100.00
2023-04-19T15:36:19.571Z,100.00
2023-04-19T15:38:48.430Z,100.00
2023-04-19T15:41:18.954Z,100.00
2023-04-19T15:43:49.258Z,100.00
2023-04-19T15:46:18.221Z,100.00
2023-04-19T15:48:48.916Z,100.00
2023-04-19T15:51:19.216Z,100.00
2023-04-19T15:53:48.329Z,100.00
2023-04-19T15:56:17.226Z,100.00
2023-04-19T15:58:46.690Z,100.00
2023-04-19T16:01:18.373Z,100.00
2023-04-19T16:03:47.862Z,100.00
2023-04-19T16:06:18.404Z,100.00
2023-04-19T16:08:48.053Z,100.00
2023-04-19T16:11:17.253Z,100.00
2023-04-19T16:13:46.133Z,100.00
2023-04-19T16:16:15.543Z,100.00
2023-04-19T16:18:45.224Z,100.00
2023-04-19T16:21:14.120Z,100.00
2023-04-19T16:23:44.110Z,100.00
2023-04-19T16:26:12.788Z,100.00
2023-04-19T16:28:41.918Z,100.00
2023-04-19T16:31:10.820Z,100.00
2023-04-19T16:33:39.804Z,100.00
2023-04-19T16:36:08.530Z,100.00
2023-04-19T16:38:37.471Z,100.00
2023-04-19T16:41:07.930Z,100.00
2023-04-19T16:43:37.119Z,100.00
2023-04-19T16:46:07.421Z,100.00
2023-04-19T16:48:36.477Z,100.00
2023-04-19T16:51:05.617Z,100.00
2023-04-19T16:53:34.377Z,100.00
2023-04-19T16:56:03.926Z,100.00
2023-04-19T16:58:34.692Z,100.00
2023-04-19T17:01:03.930Z,100.00
2023-04-19T17:03:33.073Z,100.00
2023-04-19T17:06:03.772Z,100.00
2023-04-19T17:08:32.797Z,100.00
2023-04-19T17:11:01.689Z,100.00
2023-04-19T17:13:31.087Z,100.00
2023-04-19T17:16:01.719Z,100.00
2023-04-19T17:18:30.580Z,100.00
2023-04-19T17:20:59.254Z,100.00
2023-04-19T17:23:29.596Z,100.00
2023-04-19T17:26:03.996Z,100.00
2023-04-19T17:28:32.631Z,100.00
2023-04-19T17:31:03.135Z,100.00
2023-04-19T17:33:32.320Z,100.00
2023-04-19T17:36:01.838Z,100.00
2023-04-19T17:38:30.922Z,100.00
2023-04-19T17:41:03.010Z,100.00
2023-04-19T17:43:31.814Z,100.00
2023-04-19T17:46:00.678Z,100.00
2023-04-19T17:48:30.842Z,100.00
2023-04-19T17:50:59.764Z,100.00
2023-04-19T17:53:28.416Z,100.00
2023-04-19T17:55:57.453Z,100.00
2023-04-19T17:58:26.521Z,100.00
2023-04-19T18:00:55.413Z,100.00
2023-04-19T18:03:24.342Z,100.00
2023-04-19T18:05:54.498Z,100.00
2023-04-19T18:08:23.218Z,100.00
2023-04-19T18:10:52.878Z,100.00
2023-04-19T18:13:25.099Z,100.00
2023-04-19T18:15:53.883Z,100.00
2023-04-19T18:18:23.569Z,100.00
2023-04-19T18:20:53.852Z,100.00
2023-04-19T18:23:24.846Z,100.00
2023-04-19T18:25:57.238Z,100.00
2023-04-19T18:28:26.152Z,100.00
2023-04-19T18:30:55.366Z,100.00
2023-04-19T18:33:24.243Z,100.00
2023-04-19T18:35:54.782Z,100.00
2023-04-19T18:38:23.952Z,100.00
2023-04-19T18:40:52.867Z,100.00
2023-04-19T18:43:22.155Z,100.00
2023-04-19T18:45:56.153Z,100.00
2023-04-19T18:48:28.122Z,100.00
2023-04-19T18:50:59.769Z,100.00
2023-04-19T18:53:30.982Z,100.00
2023-04-19T18:55:59.893Z,100.00
2023-04-19T18:58:29.544Z,100.00
2023-04-19T19:00:59.499Z,100.00
2023-04-19T19:03:58.077Z,100.00
2023-04-19T19:06:18.653Z,100.00
2023-04-19T19:08:50.296Z,100.00
2023-04-19T19:11:47.099Z,100.00
2023-04-19T19:14:08.260Z,100.00
2023-04-19T19:16:50.665Z,100.00
2023-04-19T19:19:22.923Z,100.00
2023-04-19T19:21:53.600Z,100.00
2023-04-19T19:24:22.495Z,100.00
2023-04-19T19:26:53.634Z,100.00
2023-04-19T19:29:22.657Z,100.00
2023-04-19T19:31:51.961Z,100.00
2023-04-19T19:34:25.792Z,100.00
2023-04-19T19:36:59.427Z,100.00
2023-04-19T19:39:28.190Z,100.00
2023-04-19T19:42:05.721Z,100.00
2023-04-19T19:44:39.137Z,100.00
2023-04-19T19:47:12.798Z,100.00
2023-04-19T19:50:05.429Z,100.00
2023-04-19T19:52:37.963Z,100.00
2023-04-19T19:55:09.171Z,100.00
2023-04-19T20:00:36.327Z,100.00
2023-04-19T20:03:04.256Z,100.00
2023-04-19T20:05:36.734Z,100.00
2023-04-19T20:08:10.645Z,100.00
2023-04-19T20:10:44.273Z,100.00
2023-04-19T20:13:18.593Z,100.00
2023-04-19T20:15:49.847Z,100.00
2023-04-19T20:18:18.982Z,100.00
2023-04-19T20:20:47.849Z,100.00
2023-04-19T20:23:18.356Z,100.00
2023-04-19T20:25:47.669Z,100.00
2023-04-19T20:28:16.314Z,100.00
2023-04-19T20:30:45.287Z,100.00
2023-04-19T20:33:15.993Z,100.00
2023-04-19T20:35:45.532Z,100.00
2023-04-19T20:38:24.047Z,100.00
2023-04-19T20:40:53.034Z,100.00
2023-04-19T20:43:22.202Z,100.00
2023-04-19T20:45:51.660Z,100.00
2023-04-19T20:48:20.623Z,100.00
2023-04-19T20:50:51.192Z,100.00
2023-04-19T20:53:23.967Z,100.00
2023-04-19T20:55:54.438Z,100.00
2023-04-19T20:58:22.963Z,100.00
2023-04-19T21:00:52.148Z,100.00
2023-04-19T21:03:21.460Z,100.00
2023-04-19T21:05:50.144Z,100.00
2023-04-19T21:08:19.803Z,100.00
2023-04-19T21:10:51.506Z,100.00
2023-04-19T21:13:20.718Z,100.00
2023-04-19T21:15:50.589Z,100.00
2023-04-19T21:18:21.004Z,100.00
2023-04-19T21:20:51.159Z,100.00
2023-04-19T21:23:20.443Z,100.00
2023-04-19T21:25:52.134Z,100.00
2023-04-19T21:28:23.076Z,100.00
2023-04-19T21:30:53.534Z,100.00
2023-04-19T21:33:23.284Z,100.00
2023-04-19T21:35:53.936Z,100.00
2023-04-19T21:38:24.240Z,100.00
2023-04-19T21:40:57.219Z,100.00
2023-04-19T21:43:26.230Z,100.00
2023-04-19T21:45:56.599Z,100.00
2023-04-19T21:48:26.747Z,100.00
2023-04-19T21:50:55.708Z,100.00
2023-04-19T21:53:25.236Z,100.00
2023-04-19T21:55:55.378Z,100.00
2023-04-19T21:58:23.925Z,100.00
2023-04-19T22:00:53.809Z,100.00
2023-04-19T22:03:23.003Z,100.00
2023-04-19T22:05:51.904Z,100.00
2023-04-19T22:08:22.252Z,100.00
2023-04-19T22:10:51.157Z,100.00
2023-04-19T22:13:22.219Z,100.00
2023-04-19T22:15:50.790Z,100.00
2023-04-19T22:18:19.251Z,100.00
2023-04-19T22:20:50.035Z,100.00
2023-04-19T22:23:18.644Z,100.00
2023-04-19T22:25:47.869Z,100.00
2023-04-19T22:28:16.640Z,100.00
2023-04-19T22:30:47.234Z,100.00
2023-04-19T22:33:16.423Z,100.00
2023-04-19T22:35:46.296Z,100.00
2023-04-19T22:38:14.751Z,100.00
2023-04-19T22:40:43.740Z,100.00
2023-04-19T22:43:12.742Z,100.00
2023-04-19T22:45:41.366Z,100.00
2023-04-19T22:48:12.621Z,100.00
2023-04-19T22:50:42.149Z,100.00
2023-04-19T22:53:12.824Z,100.00
2023-04-19T22:55:41.722Z,100.00
2023-04-19T22:58:12.681Z,100.00
2023-04-19T23:00:41.958Z,100.00
2023-04-19T23:03:12.314Z,100.00
2023-04-19T23:05:42.371Z,100.00
2023-04-19T23:08:13.060Z,100.00
2023-04-19T23:10:42.583Z,100.00
2023-04-19T23:13:11.997Z,100.00
2023-04-19T23:15:40.730Z,100.00
2023-04-19T23:18:09.881Z,100.00
2023-04-19T23:20:40.105Z,100.00
2023-04-19T23:23:09.532Z,100.00
2023-04-19T23:25:38.241Z,100.00
2023-04-19T23:28:08.867Z,100.00
2023-04-19T23:30:38.904Z,100.00
2023-04-19T23:33:07.589Z,100.00
2023-04-19T23:35:36.495Z,100.00
2023-04-19T23:38:08.452Z,100.00
2023-04-19T23:40:37.843Z,100.00
2023-04-19T23:43:06.865Z,100.00
2023-04-19T23:45:35.982Z,100.00
2023-04-19T23:48:05.819Z,100.00
2023-04-19T23:50:34.477Z,100.00
2023-04-19T23:53:04.600Z,100.00
2023-04-19T23:55:34.433Z,100.00
2023-04-19T23:58:03.469Z,100.00
